Time;durP1;ratioP1;P1;durP2;ratioP2;P2;SDS_P1;SDS_P2;PMS_P1;PMS_P2;Temp;Humidity;BMP_temperature;BMP_pressure;BME280_temperature;BME280_humidity;BME280_pressure;Samples;Min_cycle;Max_cycle;Signal;HPM_P1;HPM_P2
2023/09/14 00:00:30;;;;;;;10.25;6.07;;;;;;;-143.21;54.75;71711.28;5071618;28;20232;-80
2023/09/14 00:02:59;;;;;;;9.60;6.30;;;;;;;-143.21;53.13;71707.31;5070914;28;20227;-80
2023/09/14 00:05:25;;;;;;;11.77;6.95;;;;;;;-143.21;54.08;71701.38;5071055;28;20241;-81
2023/09/14 00:07:52;;;;;;;18.48;7.13;;;;;;;-143.21;54.51;71717.25;5071250;28;20201;-81
2023/09/14 00:10:19;;;;;;;11.43;6.70;;;;;;;-143.21;54.85;71725.16;5071192;28;20240;-80
2023/09/14 00:12:46;;;;;;;10.38;7.13;;;;;;;-143.21;55.00;71731.13;5071168;28;20296;-81
2023/09/14 00:15:13;;;;;;;17.05;7.03;;;;;;;-143.21;55.31;71737.06;5072147;28;20197;-81
2023/09/14 00:17:41;;;;;;;12.82;6.78;;;;;;;-143.21;55.54;71743.00;5067439;28;20201;-80
2023/09/14 00:20:10;;;;;;;11.68;6.60;;;;;;;-143.21;55.93;71752.94;5069478;28;20237;-79
2023/09/14 00:22:37;;;;;;;13.65;6.63;;;;;;;-143.21;56.12;71754.91;5070489;28;20228;-80
2023/09/14 00:25:05;;;;;;;13.98;7.22;;;;;;;-143.21;56.10;71760.88;5069887;28;20237;-80
2023/09/14 00:27:32;;;;;;;15.75;7.45;;;;;;;-143.21;56.11;71760.88;5069967;28;20216;-80
2023/09/14 00:29:59;;;;;;;14.57;7.47;;;;;;;-143.21;56.14;71766.81;5068843;28;20209;-80
2023/09/14 00:32:25;;;;;;;13.50;7.40;;;;;;;-143.21;56.18;71766.81;5069379;28;20220;-80
2023/09/14 00:34:53;;;;;;;13.40;6.68;;;;;;;-143.21;56.27;71758.88;5069359;28;20209;-79
2023/09/14 00:37:21;;;;;;;17.20;7.35;;;;;;;-143.21;55.94;71762.84;5069431;28;20229;-79
2023/09/14 00:39:48;;;;;;;16.13;7.22;;;;;;;-143.21;56.71;71782.69;5069897;28;20208;-80
2023/09/14 00:42:15;;;;;;;15.45;7.15;;;;;;;-143.21;56.71;71784.66;5069579;28;20198;-80
2023/09/14 00:44:41;;;;;;;13.20;7.30;;;;;;;-143.21;57.08;71788.63;5069958;28;20583;-80
2023/09/14 00:47:08;;;;;;;17.50;8.23;;;;;;;-143.21;56.92;71802.50;5069190;28;20209;-79
2023/09/14 00:49:35;;;;;;;15.68;7.95;;;;;;;-143.21;57.32;71810.44;5069681;28;20590;-81
2023/09/14 00:52:04;;;;;;;12.13;7.50;;;;;;;-143.21;57.37;71796.56;5068134;28;20225;-80
2023/09/14 00:54:32;;;;;;;12.85;7.45;;;;;;;-143.21;57.70;71808.44;5069657;28;20215;-80
2023/09/14 00:57:00;;;;;;;16.33;7.22;;;;;;;-143.21;58.25;71804.47;5068816;28;20202;-80
2023/09/14 00:59:27;;;;;;;14.10;7.53;;;;;;;-143.21;58.02;71806.47;5068847;28;20338;-79
2023/09/14 01:01:54;;;;;;;19.33;7.93;;;;;;;-143.21;58.18;71808.44;5069412;28;20668;-81
2023/09/14 01:04:20;;;;;;;15.88;7.65;;;;;;;-143.21;58.24;71816.38;5069795;28;20258;-81
2023/09/14 01:06:47;;;;;;;14.70;7.40;;;;;;;-143.21;58.42;71818.38;5069672;28;20237;-81
2023/09/14 01:09:14;;;;;;;13.68;7.43;;;;;;;-143.21;58.35;71812.41;5069578;28;20668;-81
2023/09/14 01:11:42;;;;;;;19.45;7.88;;;;;;;-143.21;57.92;71794.56;5068757;28;20221;-82
2023/09/14 01:14:18;;;;;;;11.15;7.10;;;;;;;-143.21;57.94;71788.63;5067630;28;20656;-80
2023/09/14 01:16:55;;;;;;;15.80;8.07;;;;;;;-143.21;58.34;71800.53;5064206;28;20196;-80
2023/09/14 01:19:46;;;;;;;13.70;6.82;;;;;;;-143.21;57.70;71802.50;5067552;28;20276;-80
2023/09/14 01:22:32;;;;;;;14.45;7.57;;;;;;;-143.21;58.14;71812.41;5068995;28;20201;-79
2023/09/14 01:25:07;;;;;;;16.50;7.13;;;;;;;-143.21;58.27;71824.31;5067539;28;20201;-80
2023/09/14 01:27:35;;;;;;;12.32;6.68;;;;;;;-143.21;58.59;71828.28;5068751;28;20208;-79
2023/09/14 01:30:03;;;;;;;14.63;7.25;;;;;;;-143.21;58.58;71832.25;5068241;28;20209;-81
2023/09/14 01:32:31;;;;;;;12.70;7.00;;;;;;;-143.21;58.51;71836.22;5068459;28;20704;-80
2023/09/14 01:34:58;;;;;;;12.15;7.10;;;;;;;-143.21;58.61;71840.19;5068385;28;20201;-80
2023/09/14 01:37:26;;;;;;;10.73;7.22;;;;;;;-143.21;58.34;71832.25;5068143;28;20632;-79
2023/09/14 01:39:53;;;;;;;13.15;7.10;;;;;;;-143.21;58.04;71826.28;5067457;28;20213;-79
2023/09/14 01:42:21;;;;;;;15.80;7.10;;;;;;;-143.21;58.56;71828.28;5067537;28;20205;-79
2023/09/14 01:44:50;;;;;;;12.68;6.95;;;;;;;-143.21;58.19;71816.38;5068125;28;20213;-79
2023/09/14 01:47:17;;;;;;;18.05;7.50;;;;;;;-143.21;58.33;71812.41;5065052;28;20213;-79
2023/09/14 01:49:44;;;;;;;15.30;7.50;;;;;;;-143.21;58.52;71826.28;5064884;28;20243;-79
2023/09/14 01:52:11;;;;;;;13.32;7.25;;;;;;;-143.21;58.47;71836.22;5067384;28;20240;-79
2023/09/14 01:54:38;;;;;;;12.80;7.93;;;;;;;-143.21;58.91;71842.16;5067327;28;20336;-79
2023/09/14 01:57:05;;;;;;;11.73;7.30;;;;;;;-143.21;59.08;71850.09;5067157;28;20718;-79
2023/09/14 01:59:32;;;;;;;14.00;6.93;;;;;;;-143.21;59.34;71854.06;5067355;28;21565;-78
2023/09/14 02:02:00;;;;;;;16.20;7.55;;;;;;;-143.21;59.08;71858.03;5066692;28;20284;-79
2023/09/14 02:04:27;;;;;;;12.93;7.70;;;;;;;-143.21;59.45;71865.97;5068180;28;20217;-80
2023/09/14 02:06:53;;;;;;;13.10;7.35;;;;;;;-143.21;59.36;71862.00;5067209;28;20320;-79
2023/09/14 02:09:20;;;;;;;13.90;7.18;;;;;;;-143.21;59.60;71865.97;5067029;28;20617;-79
2023/09/14 02:11:47;;;;;;;17.50;7.85;;;;;;;-143.21;59.52;71865.97;5066455;28;20197;-78
2023/09/14 02:14:14;;;;;;;13.95;7.68;;;;;;;-143.21;59.74;71867.94;5066823;28;20205;-78
2023/09/14 02:16:41;;;;;;;10.63;7.18;;;;;;;-143.21;59.63;71862.00;5067366;28;20571;-81
2023/09/14 02:19:09;;;;;;;14.05;7.45;;;;;;;-143.21;59.18;71848.09;5068361;28;20224;-81
2023/09/14 02:21:36;;;;;;;13.50;6.75;;;;;;;-143.21;59.19;71856.03;5068886;28;20229;-81
2023/09/14 02:24:02;;;;;;;21.27;7.65;;;;;;;-143.21;59.45;71865.97;5067920;28;20209;-80
2023/09/14 02:26:29;;;;;;;17.85;7.88;;;;;;;-143.21;59.53;71869.91;5067264;28;20205;-81
2023/09/14 02:28:56;;;;;;;16.08;7.68;;;;;;;-143.21;59.31;71879.84;5067076;28;20221;-81
2023/09/14 02:31:23;;;;;;;15.98;8.45;;;;;;;-143.21;59.55;71891.72;5066250;28;20664;-80
2023/09/14 02:33:50;;;;;;;12.65;7.80;;;;;;;-143.21;59.96;71907.59;5067214;28;20206;-79
2023/09/14 02:36:18;;;;;;;18.67;7.63;;;;;;;-143.21;59.64;71895.69;5067310;28;20563;-80
2023/09/14 02:38:45;;;;;;;15.30;7.60;;;;;;;-143.21;59.57;71899.66;5064571;28;20193;-80
2023/09/14 02:41:12;;;;;;;11.65;7.60;;;;;;;-143.21;59.37;71883.81;5066589;28;20222;-80
2023/09/14 02:43:39;;;;;;;15.20;7.53;;;;;;;-143.21;59.89;71889.75;5066094;28;20236;-81
2023/09/14 02:46:06;;;;;;;16.55;7.35;;;;;;;-143.21;60.07;71897.69;5065358;28;20686;-80
2023/09/14 02:48:35;;;;;;;12.20;6.82;;;;;;;-143.21;60.26;71895.69;5067362;28;20209;-80
2023/09/14 02:51:03;;;;;;;12.23;6.88;;;;;;;-143.21;59.20;71875.88;5066796;28;20205;-80
2023/09/14 02:53:31;;;;;;;16.42;6.78;;;;;;;-143.21;58.80;71867.94;5066961;28;20233;-81
2023/09/14 02:55:58;;;;;;;16.60;6.70;;;;;;;-143.21;58.70;71869.91;5067028;28;20208;-80
2023/09/14 02:58:24;;;;;;;21.17;6.75;;;;;;;-143.21;59.02;71877.84;5066479;28;20670;-80
2023/09/14 03:00:51;;;;;;;16.75;7.53;;;;;;;-143.21;59.47;71877.84;5066267;28;20205;-80
2023/09/14 03:03:18;;;;;;;16.65;7.57;;;;;;;-143.21;59.89;71889.75;5066767;28;20231;-80
2023/09/14 03:05:48;;;;;;;15.10;7.88;;;;;;;-143.21;60.01;71893.72;5063848;28;20233;-80
2023/09/14 03:08:14;;;;;;;13.38;7.45;;;;;;;-143.21;60.31;71893.72;5066337;28;20201;-79
2023/09/14 03:10:43;;;;;;;12.75;7.18;;;;;;;-143.21;60.44;71901.66;5066856;28;20205;-80
2023/09/14 03:13:10;;;;;;;17.92;7.80;;;;;;;-143.21;60.39;71893.72;5066499;28;20258;-81
2023/09/14 03:15:37;;;;;;;16.30;7.07;;;;;;;-143.21;60.52;71893.72;5070263;28;20747;-81
2023/09/14 03:18:04;;;;;;;16.50;7.60;;;;;;;-143.21;60.54;71895.69;5070312;28;20235;-81
2023/09/14 03:20:31;;;;;;;15.38;7.50;;;;;;;-143.21;60.46;71889.75;5071357;28;20236;-81
2023/09/14 03:22:59;;;;;;;13.65;7.05;;;;;;;-143.21;60.53;71893.72;5070022;28;20282;-80
2023/09/14 03:25:26;;;;;;;13.30;7.00;;;;;;;-143.21;60.33;71891.72;5070513;28;20201;-80
2023/09/14 03:27:54;;;;;;;15.77;7.57;;;;;;;-143.21;60.42;71895.69;5070443;28;20201;-81
2023/09/14 03:37:08;;;;;;;16.92;8.38;;;;;;;-143.21;60.02;71867.94;4923221;29;20708;-84
2023/09/14 03:39:35;;;;;;;15.23;8.18;;;;;;;-143.21;60.20;71881.81;5027321;28;20213;-80
2023/09/14 03:42:01;;;;;;;19.48;8.57;;;;;;;-143.21;60.50;71893.72;5068114;28;20216;-79
2023/09/14 03:44:30;;;;;;;19.77;8.93;;;;;;;-143.21;60.53;71895.69;5070047;28;20659;-80
2023/09/14 03:46:56;;;;;;;24.27;9.38;;;;;;;-143.21;60.15;71891.72;5070285;28;20209;-81
2023/09/14 03:49:23;;;;;;;20.27;8.38;;;;;;;-143.21;59.77;71889.75;5070142;28;20216;-80
2023/09/14 03:51:50;;;;;;;13.35;8.07;;;;;;;-143.21;60.26;71899.66;5070239;28;20193;-80
2023/09/14 03:54:17;;;;;;;18.35;7.93;;;;;;;-143.21;60.62;71911.56;5067883;28;20607;-80
2023/09/14 03:56:46;;;;;;;17.02;8.45;;;;;;;-143.21;60.97;71915.53;5070634;28;20209;-79
2023/09/14 03:59:13;;;;;;;22.83;9.15;;;;;;;-143.21;60.99;71919.50;5070141;28;20209;-80
2023/09/14 04:01:41;;;;;;;22.45;8.77;;;;;;;-143.21;61.20;71925.44;5069918;28;20590;-79
2023/09/14 04:04:08;;;;;;;22.05;8.38;;;;;;;-143.21;60.83;71919.50;5068881;28;20224;-78
2023/09/14 04:06:35;;;;;;;18.52;8.60;;;;;;;-143.21;61.08;71923.47;5067756;28;20245;-78
2023/09/14 04:09:04;;;;;;;18.98;8.57;;;;;;;-143.21;60.76;71929.41;5067267;28;20232;-79
2023/09/14 04:11:30;;;;;;;17.13;8.23;;;;;;;-143.21;60.92;71933.38;5068392;28;20696;-80
2023/09/14 04:13:58;;;;;;;16.17;8.30;;;;;;;-143.21;61.26;71937.34;5068571;28;20734;-78
2023/09/14 04:16:28;;;;;;;23.92;9.30;;;;;;;-143.21;61.52;71919.50;5069172;28;20281;-78
2023/09/14 04:19:00;;;;;;;23.17;9.60;;;;;;;-143.21;61.15;71911.56;5068619;28;20285;-79
2023/09/14 04:21:27;;;;;;;21.58;9.27;;;;;;;-143.21;61.30;71917.50;5068810;28;20232;-78
2023/09/14 04:23:54;;;;;;;19.13;9.57;;;;;;;-143.21;61.74;71923.47;5068594;28;20205;-79
2023/09/14 04:26:21;;;;;;;28.35;10.82;;;;;;;-143.21;61.89;71933.38;5068677;28;20201;-79
2023/09/14 04:28:47;;;;;;;20.63;10.00;;;;;;;-143.21;61.96;71933.38;5068681;28;20201;-80
2023/09/14 04:31:14;;;;;;;19.58;10.05;;;;;;;-143.21;61.68;71939.31;5068546;28;20205;-79
2023/09/14 04:33:42;;;;;;;23.55;10.75;;;;;;;-143.21;61.60;71937.34;5069866;28;20282;-79
2023/09/14 04:36:11;;;;;;;19.88;10.75;;;;;;;-143.21;61.55;71937.34;5069413;28;20216;-80
2023/09/14 04:38:38;;;;;;;22.80;9.93;;;;;;;-143.21;61.67;71945.28;5068723;28;20296;-80
2023/09/14 04:41:05;;;;;;;29.92;10.70;;;;;;;-143.21;61.71;71947.25;5068041;28;20224;-79
2023/09/14 04:43:32;;;;;;;25.65;10.00;;;;;;;-143.21;61.57;71947.25;5068125;28;20244;-79
2023/09/14 04:46:00;;;;;;;23.10;10.73;;;;;;;-143.21;61.43;71943.28;5067918;28;20377;-79
2023/09/14 04:48:27;;;;;;;30.77;9.82;;;;;;;-143.21;61.19;71939.31;5068664;28;20276;-80
2023/09/14 04:50:56;;;;;;;31.83;11.52;;;;;;;-143.21;61.14;71933.38;5068694;28;20208;-79
2023/09/14 04:53:25;;;;;;;27.15;12.52;;;;;;;-143.21;61.23;71931.38;5069146;28;20212;-80
2023/09/14 04:55:52;;;;;;;41.63;10.90;;;;;;;-143.21;60.71;71929.41;5068858;28;20201;-79
2023/09/14 04:58:19;;;;;;;25.77;10.05;;;;;;;-143.21;60.55;71917.50;5068548;28;20201;-80
2023/09/14 05:00:48;;;;;;;21.27;9.57;;;;;;;-143.21;60.27;71913.53;5069761;28;20201;-79
2023/09/14 05:03:15;;;;;;;28.67;10.23;;;;;;;-143.21;60.05;71913.53;5068899;28;20300;-80
2023/09/14 05:05:51;;;;;;;23.63;9.82;;;;;;;-143.21;59.87;71909.56;5067007;28;20731;-77
2023/09/14 05:08:25;;;;;;;30.77;10.85;;;;;;;-143.21;60.18;71887.78;5064844;28;20204;-80
2023/09/14 05:10:53;;;;;;;35.10;10.77;;;;;;;-143.21;60.09;71869.91;5065825;28;20701;-79
2023/09/14 05:16:08;;;;;;;29.75;10.95;;;;;;;-143.21;59.81;71883.81;5067594;28;20303;-81
2023/09/14 05:18:34;;;;;;;26.98;10.27;;;;;;;-143.21;59.68;71885.78;5067908;28;20691;-82
2023/09/14 05:21:01;;;;;;;22.77;9.60;;;;;;;-143.21;59.76;71883.81;5068497;28;20213;-81
2023/09/14 05:23:30;;;;;;;31.88;9.63;;;;;;;-143.21;59.96;71883.81;5069649;28;20233;-81
2023/09/14 05:25:59;;;;;;;33.30;10.40;;;;;;;-143.21;60.05;71885.78;5071205;28;20296;-83
2023/09/14 05:28:26;;;;;;;26.17;10.90;;;;;;;-143.21;59.71;71867.94;5071285;28;20206;-82
2023/09/14 05:30:52;;;;;;;30.15;10.23;;;;;;;-143.21;59.78;71865.97;5069925;28;20202;-83
2023/09/14 05:33:19;;;;;;;39.00;10.82;;;;;;;-143.21;60.09;71860.00;5067742;28;20220;-82
2023/09/14 05:35:48;;;;;;;21.83;10.27;;;;;;;-143.21;60.06;71848.09;5065903;28;20616;-82
2023/09/14 05:38:15;;;;;;;38.65;12.60;;;;;;;-143.21;59.91;71838.19;5066625;28;20237;-82
2023/09/14 05:40:42;;;;;;;25.13;10.82;;;;;;;-143.21;59.22;71830.25;5068888;28;20205;-83
2023/09/14 05:43:10;;;;;;;18.30;9.32;;;;;;;-143.21;58.15;71816.38;5069047;28;20233;-82
2023/09/14 05:45:37;;;;;;;23.90;10.55;;;;;;;-143.21;58.18;71814.41;5069762;28;21165;-82
2023/09/14 05:48:05;;;;;;;22.75;9.77;;;;;;;-143.21;57.79;71800.53;5067917;28;20205;-82
2023/09/14 05:50:33;;;;;;;19.10;10.32;;;;;;;-143.21;57.68;71788.63;5068156;28;20213;-81
2023/09/14 05:53:00;;;;;;;16.52;9.07;;;;;;;-143.21;57.60;71776.72;5068637;28;20193;-83
2023/09/14 05:55:26;;;;;;;19.42;8.73;;;;;;;-143.21;56.84;71768.78;5070388;28;20682;-82
2023/09/14 05:57:55;;;;;;;21.08;8.55;;;;;;;-143.21;56.17;71772.75;5067571;28;20684;-83
2023/09/14 06:00:23;;;;;;;20.35;8.30;;;;;;;-143.21;55.27;71764.81;5067782;28;20201;-81
2023/09/14 06:02:50;;;;;;;19.73;7.47;;;;;;;-143.21;55.11;71762.84;5067835;28;20224;-81
2023/09/14 06:05:17;;;;;;;17.65;7.40;;;;;;;-143.21;54.64;71748.97;5068017;28;20248;-82
2023/09/14 06:07:44;;;;;;;13.15;6.85;;;;;;;-143.21;54.77;71752.94;5067473;28;20656;-81
2023/09/14 06:10:12;;;;;;;14.80;8.65;;;;;;;-143.21;55.19;71752.94;5068601;28;20209;-83
2023/09/14 06:12:39;;;;;;;16.08;8.15;;;;;;;-143.21;55.35;71746.97;5069513;28;20295;-83
2023/09/14 06:15:06;;;;;;;26.25;8.80;;;;;;;-143.21;55.09;71735.09;5068150;28;20224;-82
2023/09/14 06:17:35;;;;;;;14.20;7.75;;;;;;;-143.21;54.09;71725.16;5068339;28;20296;-81
2023/09/14 06:20:03;;;;;;;19.67;8.63;;;;;;;-143.21;53.30;71701.38;5068284;28;20294;-82
2023/09/14 06:22:30;;;;;;;17.77;8.57;;;;;;;-143.21;52.70;71683.53;5066583;28;20221;-82
2023/09/14 06:24:57;;;;;;;18.67;8.50;;;;;;;-143.21;52.64;71675.59;5067735;28;20193;-81
2023/09/14 06:27:24;;;;;;;17.40;8.60;;;;;;;-143.21;52.84;71677.59;5067768;28;20201;-81
2023/09/14 06:29:50;;;;;;;19.98;9.23;;;;;;;-143.21;53.08;71669.66;5067824;28;20206;-82
2023/09/14 06:32:19;;;;;;;17.25;8.27;;;;;;;-143.21;53.05;71667.66;5063915;28;20205;-80
2023/09/14 06:34:48;;;;;;;24.67;9.38;;;;;;;-143.21;52.93;71667.66;5066379;28;20205;-79
2023/09/14 06:37:15;;;;;;;16.83;8.90;;;;;;;-143.21;52.83;71667.66;5066747;28;20212;-80
2023/09/14 06:39:41;;;;;;;20.73;8.50;;;;;;;-143.21;52.67;71665.69;5067142;28;20209;-79
2023/09/14 06:42:08;;;;;;;17.38;9.25;;;;;;;-143.21;52.67;71657.75;5067114;28;20205;-80
2023/09/14 06:44:36;;;;;;;17.90;8.40;;;;;;;-143.21;52.57;71653.78;5067315;28;20597;-80
2023/09/14 06:47:05;;;;;;;26.33;8.68;;;;;;;-143.21;52.38;71645.88;5067356;28;20248;-82
2023/09/14 06:49:31;;;;;;;18.23;8.70;;;;;;;-143.21;52.38;71633.97;5068668;28;20715;-81
2023/09/14 06:51:59;;;;;;;18.02;8.88;;;;;;;-143.21;51.86;71620.09;5069152;28;20221;-76
2023/09/14 06:54:26;;;;;;;20.45;8.68;;;;;;;-143.21;51.80;71606.22;5066999;28;20197;-75
2023/09/14 06:56:53;;;;;;;17.83;8.48;;;;;;;-143.21;51.70;71604.22;5067144;28;20201;-76
2023/09/14 06:59:19;;;;;;;17.58;8.38;;;;;;;-143.21;51.86;71602.25;5067176;28;20240;-74
2023/09/14 07:01:46;;;;;;;24.02;9.10;;;;;;;-143.21;51.79;71596.28;5067281;28;20205;-75
2023/09/14 07:04:13;;;;;;;25.73;9.02;;;;;;;-143.21;51.99;71592.31;5067571;28;20225;-75
2023/09/14 07:06:40;;;;;;;18.52;9.23;;;;;;;-143.21;51.43;71588.38;5067293;28;20248;-76
2023/09/14 07:09:08;;;;;;;21.27;8.52;;;;;;;-143.21;51.49;71588.38;5068087;28;20216;-76
2023/09/14 07:11:35;;;;;;;20.38;7.95;;;;;;;-143.21;50.63;71576.47;5068418;28;20217;-76
2023/09/14 07:14:01;;;;;;;22.08;7.72;;;;;;;-143.21;50.28;71572.50;5067409;28;20715;-76
2023/09/14 07:16:28;;;;;;;21.05;8.25;;;;;;;-143.21;50.47;71564.56;5067873;28;20684;-81
2023/09/14 07:18:55;;;;;;;19.38;8.25;;;;;;;-143.21;49.98;71556.63;5065301;28;20614;-76
2023/09/14 07:21:22;;;;;;;19.92;8.15;;;;;;;-143.21;49.58;71550.69;5066442;28;20680;-77
2023/09/14 07:23:48;;;;;;;21.75;7.57;;;;;;;-143.21;49.55;71544.75;5067862;28;20221;-76
2023/09/14 07:26:17;;;;;;;20.20;7.88;;;;;;;-143.21;49.22;71540.78;5067944;28;20610;-76
2023/09/14 07:28:44;;;;;;;23.65;7.32;;;;;;;-143.21;49.10;71536.81;5068730;28;20579;-77
2023/09/14 07:31:11;;;;;;;22.23;6.97;;;;;;;-143.21;49.14;71542.75;5067754;28;20201;-77
2023/09/14 07:33:37;;;;;;;14.90;6.13;;;;;;;-143.21;47.58;71540.78;5067708;28;20571;-77
2023/09/14 07:36:04;;;;;;;23.95;7.00;;;;;;;-143.21;47.79;71546.72;5066650;28;20358;-76
2023/09/14 07:38:31;;;;;;;22.75;7.15;;;;;;;-143.21;47.75;71546.72;5067882;28;20205;-76
2023/09/14 07:40:58;;;;;;;21.42;6.70;;;;;;;-143.21;47.38;71538.78;5067191;28;20208;-76
2023/09/14 07:43:27;;;;;;;18.05;6.20;;;;;;;-143.21;47.61;71538.78;5067102;28;20585;-76
2023/09/14 07:45:55;;;;;;;15.70;6.60;;;;;;;-143.21;47.07;71526.91;5067354;28;20205;-76
2023/09/14 07:48:22;;;;;;;15.07;5.60;;;;;;;-143.21;46.90;71499.13;5067436;28;20673;-76
2023/09/14 07:50:49;;;;;;;15.52;6.28;;;;;;;-143.21;46.23;71489.22;5067480;28;20198;-77
2023/09/14 07:53:16;;;;;;;14.45;5.70;;;;;;;-143.21;45.39;71479.31;5068360;28;20198;-80
2023/09/14 07:55:43;;;;;;;21.70;6.20;;;;;;;-143.21;45.18;71479.31;5069635;28;20205;-75
2023/09/14 07:58:10;;;;;;;19.02;6.00;;;;;;;-143.21;45.32;71479.31;5067556;28;20212;-78
2023/09/14 08:00:38;;;;;;;20.10;5.97;;;;;;;-143.21;45.73;71503.09;5067197;28;20205;-76
2023/09/14 08:03:05;;;;;;;15.63;5.75;;;;;;;-143.21;46.53;71499.13;5067480;28;20290;-80
2023/09/14 08:05:32;;;;;;;21.90;5.93;;;;;;;-143.21;46.27;71491.22;5067000;28;20251;-77
2023/09/14 08:07:59;;;;;;;19.52;6.40;;;;;;;-143.21;45.75;71479.31;5069418;28;20664;-77
2023/09/14 08:10:26;;;;;;;19.05;6.45;;;;;;;-143.21;45.87;71467.41;5070773;28;20209;-77
2023/09/14 08:12:53;;;;;;;12.57;5.80;;;;;;;-143.21;45.33;71447.59;5071498;28;20185;-78
2023/09/14 08:15:20;;;;;;;16.08;6.63;;;;;;;-143.21;45.43;71433.72;5071415;28;20201;-78
2023/09/14 08:17:48;;;;;;;14.38;6.32;;;;;;;-143.21;45.16;71411.91;5070686;28;20197;-78
2023/09/14 08:20:15;;;;;;;21.85;6.10;;;;;;;-143.21;44.67;71400.00;5071175;28;20220;-77
2023/09/14 08:22:42;;;;;;;19.27;5.85;;;;;;;-143.21;46.83;71384.16;5069869;28;20208;-77
2023/09/14 08:25:10;;;;;;;22.88;5.60;;;;;;;-143.21;45.74;71360.34;5070991;28;20197;-77
2023/09/14 08:27:39;;;;;;;15.05;5.53;;;;;;;-143.21;43.26;71320.69;5070407;28;20639;-78
2023/09/14 08:30:08;;;;;;;20.42;6.53;;;;;;;-143.21;42.48;71306.81;5070846;28;20229;-77
2023/09/14 08:32:35;;;;;;;15.80;5.75;;;;;;;-143.21;42.55;71304.84;5069917;28;20235;-77
2023/09/14 08:35:21;;;;;;;22.65;6.05;;;;;;;-143.21;42.95;71320.69;5070316;28;20208;-77
2023/09/14 08:37:48;;;;;;;16.13;5.88;;;;;;;-143.21;43.95;71312.78;5070563;28;20189;-78
2023/09/14 08:40:15;;;;;;;16.92;5.25;;;;;;;-143.21;43.12;71287.00;5070573;28;20229;-77
2023/09/14 08:42:47;;;;;;;20.33;5.97;;;;;;;-143.21;42.22;71257.25;5070378;28;20201;-78
2023/09/14 08:45:16;;;;;;;12.27;5.70;;;;;;;-143.21;42.88;71225.53;5070826;28;20197;-78
2023/09/14 08:47:47;;;;;;;15.80;6.03;;;;;;;-143.21;42.67;71215.63;5070089;28;20197;-77
2023/09/14 08:50:18;;;;;;;17.20;6.28;;;;;;;-143.21;41.94;71193.81;5070155;28;20288;-76
2023/09/14 08:52:46;;;;;;;28.98;5.97;;;;;;;-143.21;40.81;71170.03;5070562;28;20267;-77
2023/09/14 08:55:13;;;;;;;21.63;5.47;;;;;;;-143.21;41.02;71152.19;5069893;28;20602;-77
2023/09/14 08:57:42;;;;;;;23.17;5.80;;;;;;;-143.21;40.94;71142.28;5070032;28;20296;-76
2023/09/14 09:00:14;;;;;;;15.13;5.85;;;;;;;-143.21;40.96;71126.41;5050107;28;20195;-76
2023/09/14 09:02:43;;;;;;;18.70;5.30;;;;;;;-143.21;42.01;71112.53;5066364;28;20197;-76
2023/09/14 09:05:11;;;;;;;21.63;6.68;;;;;;;-143.21;41.25;71090.72;5068765;28;20233;-75
2023/09/14 09:07:41;;;;;;;15.80;6.22;;;;;;;-143.21;41.05;71064.97;5069115;28;20225;-75
2023/09/14 09:10:13;;;;;;;17.52;6.68;;;;;;;-143.21;39.73;71041.16;5068485;28;20205;-75
2023/09/14 09:12:40;;;;;;;17.90;5.90;;;;;;;-143.21;40.62;71015.41;5068381;28;20204;-75
2023/09/14 09:15:09;;;;;;;22.23;6.30;;;;;;;-143.21;39.80;71003.50;5069990;28;20213;-75
2023/09/14 09:17:39;;;;;;;22.98;6.68;;;;;;;-143.21;39.73;70985.66;5069274;28;20270;-76
2023/09/14 09:20:13;;;;;;;21.42;6.88;;;;;;;-143.21;39.61;70963.84;5069584;28;20760;-76
2023/09/14 09:22:43;;;;;;;29.08;6.50;;;;;;;-143.21;40.02;70944.03;5067817;28;20196;-75
2023/09/14 09:25:11;;;;;;;20.40;6.13;;;;;;;-143.21;40.23;70928.19;5069318;28;20229;-75
2023/09/14 09:27:39;;;;;;;16.90;6.72;;;;;;;-143.21;38.55;70918.25;5068269;28;20203;-76
2023/09/14 09:30:08;;;;;;;13.98;6.32;;;;;;;-143.21;38.21;70886.53;5069648;28;20280;-78
2023/09/14 09:32:37;;;;;;;17.83;5.80;;;;;;;-143.21;38.44;70894.47;5070169;28;20228;-76
2023/09/14 09:35:18;;;;;;;14.48;5.97;;;;;;;-143.21;38.86;70892.50;5069581;28;20198;-75
2023/09/14 09:37:47;;;;;;;21.05;6.22;;;;;;;-143.21;37.75;70864.75;5070021;28;20559;-75
2023/09/14 09:40:15;;;;;;;16.25;5.97;;;;;;;-143.21;37.34;70848.88;5069466;28;20894;-75
2023/09/14 09:42:43;;;;;;;17.30;6.03;;;;;;;-143.21;38.69;70850.88;5069118;28;20205;-75
2023/09/14 09:45:11;;;;;;;14.18;6.32;;;;;;;-143.21;37.78;70835.00;5069786;28;20273;-75
2023/09/14 09:47:38;;;;;;;13.13;5.68;;;;;;;-143.21;37.86;70823.13;5069246;28;20197;-76
2023/09/14 09:50:07;;;;;;;13.38;6.13;;;;;;;-143.21;37.33;70799.31;5069351;28;20197;-75
2023/09/14 09:52:35;;;;;;;14.60;5.88;;;;;;;-143.21;36.93;70783.47;5069489;28;20294;-75
2023/09/14 09:55:04;;;;;;;15.95;6.60;;;;;;;-143.21;36.06;70765.63;5066392;28;20204;-78
2023/09/14 09:57:35;;;;;;;18.67;5.97;;;;;;;-143.21;35.44;70739.84;5068291;28;20208;-79
2023/09/14 10:00:12;;;;;;;13.23;5.68;;;;;;;-143.21;35.71;70710.13;5069306;28;20197;-78
2023/09/14 10:02:40;;;;;;;17.52;5.47;;;;;;;-143.21;35.22;70668.50;5070402;28;20209;-78
2023/09/14 10:05:07;;;;;;;15.65;6.32;;;;;;;-143.21;34.55;70624.88;5069626;28;20232;-79
2023/09/14 10:07:37;;;;;;;19.77;6.28;;;;;;;-143.21;33.96;70589.22;5069713;28;20200;-78
2023/09/14 10:10:06;;;;;;;19.00;5.63;;;;;;;-143.21;33.42;70543.63;5069132;28;20652;-77
2023/09/14 10:12:38;;;;;;;15.70;6.13;;;;;;;-143.21;32.75;70503.97;5069288;28;20201;-78
2023/09/14 10:15:06;;;;;;;12.57;6.22;;;;;;;-143.21;31.85;70466.31;5069927;28;20197;-78
2023/09/14 10:17:33;;;;;;;20.73;5.95;;;;;;;-143.21;31.85;70432.63;5070223;28;20194;-79
2023/09/14 10:20:03;;;;;;;16.08;5.93;;;;;;;-143.21;31.49;70410.81;5069925;28;20751;-78
2023/09/14 10:22:30;;;;;;;13.63;5.50;;;;;;;-143.21;31.18;70379.09;5068779;28;20300;-78
2023/09/14 10:24:58;;;;;;;13.07;5.78;;;;;;;-143.21;30.81;70359.28;5073791;28;20711;-79
2023/09/14 10:27:28;;;;;;;16.02;5.88;;;;;;;-143.21;30.72;70331.53;5075228;28;20221;-81
2023/09/14 10:29:56;;;;;;;19.45;5.75;;;;;;;-143.21;30.25;70307.75;5075421;28;20205;-79
2023/09/14 10:32:23;;;;;;;12.35;5.07;;;;;;;-143.21;29.42;70287.94;5075243;28;20280;-81
2023/09/14 10:34:51;;;;;;;10.10;4.97;;;;;;;-143.21;28.55;70295.88;5074863;28;20277;-81
2023/09/14 10:37:20;;;;;;;14.20;5.80;;;;;;;-143.21;28.84;70282.00;5055681;28;20206;-80
2023/09/14 10:39:47;;;;;;;16.50;5.13;;;;;;;-143.21;29.04;70248.28;5055415;28;20197;-80
2023/09/14 10:42:14;;;;;;;15.43;5.32;;;;;;;-143.21;28.35;70226.50;5055261;28;20201;-81
2023/09/14 10:44:42;;;;;;;14.73;5.35;;;;;;;-143.21;27.89;70254.25;5056451;28;20217;-82
2023/09/14 10:47:10;;;;;;;10.30;5.43;;;;;;;-143.21;28.26;70295.88;5075403;28;20285;-81
2023/09/14 10:49:38;;;;;;;9.57;4.70;;;;;;;-143.21;28.29;70329.56;5075394;28;20250;-81
2023/09/14 10:52:06;;;;;;;17.42;5.95;;;;;;;-143.21;28.86;70337.50;5074888;28;20292;-78
2023/09/14 10:54:33;;;;;;;13.60;5.88;;;;;;;-143.21;28.86;70315.69;5074587;28;20194;-78
2023/09/14 10:57:01;;;;;;;13.02;5.57;;;;;;;-143.21;29.10;70307.75;5074726;28;20196;-78
2023/09/14 10:59:49;;;;;;;12.48;5.53;;;;;;;-143.21;28.80;70282.00;5074444;28;20645;-77
2023/09/14 11:02:49;;;;;;;12.25;5.90;;;;;;;-143.21;28.97;70242.34;5074568;28;20258;-77
2023/09/14 11:05:17;;;;;;;21.75;6.20;;;;;;;-143.21;28.71;70208.66;5074245;28;20225;-77
2023/09/14 11:07:47;;;;;;;16.38;5.97;;;;;;;-143.21;28.67;70196.78;5074994;28;20570;-77
2023/09/14 11:10:17;;;;;;;12.50;4.95;;;;;;;-143.21;28.00;70208.66;5073846;28;20193;-78
2023/09/14 11:12:44;;;;;;;11.30;5.22;;;;;;;-143.21;28.16;70242.34;5074141;28;20205;-77
2023/09/14 11:15:16;;;;;;;18.02;5.50;;;;;;;-143.21;28.42;70266.13;5074534;28;20669;-79
2023/09/14 11:17:43;;;;;;;12.95;5.82;;;;;;;-143.21;28.39;70280.00;5074796;28;20197;-78
2023/09/14 11:20:40;;;;;;;13.30;5.55;;;;;;;-143.21;28.54;70270.09;5074102;28;20197;-78
2023/09/14 11:23:10;;;;;;;14.60;5.57;;;;;;;-143.21;28.83;70268.13;5074126;28;20201;-78